Time;durP1;ratioP1;P1;durP2;ratioP2;P2;SDS_P1;SDS_P2;PMS_P1;PMS_P2;Temp;Humidity;BMP_temperature;BMP_pressure;BME280_temperature;BME280_humidity;BME280_pressure;Samples;Min_cycle;Max_cycle;Signal;HPM_P1;HPM_P2
2021/04/28 00:00:53;;;;;;;47.27;9.48;;;;;;;3.51;78.87;100886.66;1769406;80;21376;-59
2021/04/28 00:04:00;;;;;;;49.42;8.78;;;;;;;3.53;78.96;100885.19;1768956;81;21348;-59
2021/04/28 00:07:11;;;;;;;42.30;8.63;;;;;;;3.54;79.03;100890.48;1769211;81;21328;-59
2021/04/28 00:10:19;;;;;;;34.58;7.15;;;;;;;3.55;79.08;100888.65;1769123;81;21363;-59
2021/04/28 00:13:24;;;;;;;31.77;7.35;;;;;;;3.54;79.12;100895.89;1768891;81;21748;-58
2021/04/28 00:16:30;;;;;;;30.02;7.03;;;;;;;3.53;79.11;100888.77;1769039;81;21344;-59
2021/04/28 00:19:37;;;;;;;29.77;6.50;;;;;;;3.53;79.11;100894.66;1769088;81;21381;-58
2021/04/28 00:22:43;;;;;;;19.90;6.22;;;;;;;3.50;79.08;100898.48;1769279;81;21232;-59
2021/04/28 00:25:51;;;;;;;25.95;6.15;;;;;;;3.47;78.96;100901.42;1769416;80;21351;-60
2021/04/28 00:28:57;;;;;;;22.65;5.62;;;;;;;3.43;78.88;100898.56;1769274;80;21340;-60
2021/04/28 00:32:04;;;;;;;12.53;5.35;;;;;;;3.38;78.81;100902.11;1769438;80;21952;-60
2021/04/28 00:35:12;;;;;;;14.43;5.28;;;;;;;3.35;78.83;100905.53;1762962;80;21371;-59
2021/04/28 00:38:18;;;;;;;10.45;5.37;;;;;;;3.32;78.87;100909.35;1769122;80;21336;-60
2021/04/28 00:41:25;;;;;;;9.43;5.40;;;;;;;3.33;78.86;100911.58;1769586;80;21387;-60
2021/04/28 00:44:30;;;;;;;7.72;5.10;;;;;;;3.33;78.82;100913.77;1769193;80;21256;-59
2021/04/28 00:47:36;;;;;;;10.72;5.17;;;;;;;3.32;78.81;100905.30;1769401;80;21214;-58
2021/04/28 00:50:51;;;;;;;8.08;5.53;;;;;;;3.31;78.76;100902.70;1769277;81;21411;-59
2021/04/28 00:53:56;;;;;;;22.02;5.85;;;;;;;3.31;78.68;100908.99;1769164;81;21806;-59
2021/04/28 00:57:02;;;;;;;15.40;6.65;;;;;;;3.29;78.62;100913.65;1762191;81;21237;-59
2021/04/28 01:00:09;;;;;;;20.72;5.83;;;;;;;3.29;78.58;100915.00;1768957;80;21225;-60
2021/04/28 01:03:15;;;;;;;10.88;5.50;;;;;;;3.28;78.56;100909.70;1769038;80;21454;-60
2021/04/28 01:06:23;;;;;;;7.10;5.47;;;;;;;3.26;78.35;100909.83;1769493;80;21213;-59
2021/04/28 01:09:29;;;;;;;11.15;4.95;;;;;;;3.23;78.12;100908.71;1769204;81;21701;-60
2021/04/28 01:12:36;;;;;;;5.90;4.62;;;;;;;3.18;77.96;100904.61;1769429;80;21533;-61
2021/04/28 01:15:42;;;;;;;10.30;4.65;;;;;;;3.13;77.84;100910.86;1769376;80;21214;-59
2021/04/28 01:18:47;;;;;;;6.22;4.47;;;;;;;3.08;77.72;100911.72;1769766;80;21202;-59
2021/04/28 01:21:56;;;;;;;4.95;3.85;;;;;;;3.04;77.59;100913.27;1770035;80;21356;-59
2021/04/28 01:25:02;;;;;;;4.60;4.17;;;;;;;3.00;77.43;100912.27;1762150;80;21403;-59
2021/04/28 01:28:15;;;;;;;4.92;4.45;;;;;;;2.96;77.40;100906.26;1769059;80;21197;-59
2021/04/28 01:31:21;;;;;;;16.45;4.17;;;;;;;2.92;77.34;100910.63;1769204;80;21190;-59
2021/04/28 01:34:30;;;;;;;13.10;4.50;;;;;;;2.88;77.21;100917.26;1768999;80;21761;-60
2021/04/28 01:37:38;;;;;;;6.72;3.90;;;;;;;2.81;77.20;100920.91;1769120;80;21315;-59
2021/04/28 01:40:45;;;;;;;14.25;4.47;;;;;;;2.73;77.21;100916.55;1770109;78;21355;-61
2021/04/28 01:43:55;;;;;;;8.20;4.92;;;;;;;2.67;77.20;100916.13;1769335;80;21356;-60
2021/04/28 01:47:01;;;;;;;18.23;6.80;;;;;;;2.62;77.19;100911.55;1769383;80;21341;-59
2021/04/28 01:50:08;;;;;;;9.75;5.15;;;;;;;2.56;77.24;100918.28;1769492;80;21367;-59
2021/04/28 01:53:14;;;;;;;7.95;4.65;;;;;;;2.50;77.16;100919.22;1781559;79;21355;-60
2021/04/28 01:56:21;;;;;;;6.25;4.67;;;;;;;2.45;77.27;100921.38;1769314;80;21340;-59
2021/04/28 01:59:30;;;;;;;11.53;4.70;;;;;;;2.39;77.44;100915.08;1758736;80;21178;-59
2021/04/28 02:02:53;;;;;;;5.53;4.72;;;;;;;2.33;77.41;100916.38;1769378;80;21343;-60
2021/04/28 02:05:59;;;;;;;11.83;4.60;;;;;;;2.25;77.42;100916.05;1769161;81;21410;-59
2021/04/28 02:09:04;;;;;;;7.05;3.80;;;;;;;2.21;77.60;100917.74;1769061;81;21694;-59
2021/04/28 02:12:09;;;;;;;4.87;3.92;;;;;;;2.18;77.76;100923.38;1768922;81;21229;-60
2021/04/28 02:15:17;;;;;;;4.80;4.33;;;;;;;2.17;77.85;100925.70;1769068;81;21218;-60
2021/04/28 02:18:24;;;;;;;7.08;3.67;;;;;;;2.14;77.84;100934.03;1768972;81;21197;-60
2021/04/28 02:21:30;;;;;;;5.28;4.40;;;;;;;2.11;77.88;100932.90;1769255;81;21214;-61
2021/04/28 02:24:39;;;;;;;9.43;6.92;;;;;;;2.03;77.69;100934.77;1769740;80;21194;-59
2021/04/28 02:27:52;;;;;;;19.62;10.58;;;;;;;1.97;77.78;100937.03;1769051;81;21221;-61
2021/04/28 02:30:53;;;;;;;21.20;10.75;;;;;;;1.92;77.99;100941.92;1769049;80;21837;-61
2021/04/28 02:34:03;;;;;;;22.05;9.98;;;;;;;1.90;78.20;100943.85;1769192;80;21178;-61
2021/04/28 02:37:26;;;;;;;21.12;9.95;;;;;;;1.87;78.19;100952.16;1769307;81;21205;-61
2021/04/28 02:40:33;;;;;;;18.27;10.93;;;;;;;1.82;78.26;100952.97;1779228;80;21352;-61
2021/04/28 02:43:40;;;;;;;21.35;11.40;;;;;;;1.76;78.32;100947.49;1769527;80;21431;-61
2021/04/28 02:46:47;;;;;;;20.43;11.85;;;;;;;1.70;78.27;100949.78;1768622;80;21174;-61
2021/04/28 02:49:55;;;;;;;25.90;14.13;;;;;;;1.65;78.46;100958.67;1762692;80;21399;-61
2021/04/28 02:53:20;;;;;;;;;;;;;;;1.63;78.66;100957.91;1771140;80;21355;-61
2021/04/28 02:56:25;;;;;;;23.62;12.23;;;;;;;1.61;78.78;100955.79;1784842;80;20281;-61
2021/04/28 02:59:30;;;;;;;21.87;12.33;;;;;;;1.58;78.80;100958.70;1769710;80;21419;-61
2021/04/28 03:02:36;;;;;;;18.30;11.48;;;;;;;1.57;78.89;100963.73;1769229;80;21383;-64
2021/04/28 03:05:37;;;;;;;16.17;10.75;;;;;;;1.58;78.91;100955.53;1762217;80;21333;-64
2021/04/28 03:08:47;;;;;;;16.80;11.00;;;;;;;1.60;78.97;100963.52;1769800;80;21181;-63
2021/04/28 03:11:52;;;;;;;14.55;10.20;;;;;;;1.64;79.03;100973.11;1768829;80;21339;-63
2021/04/28 03:15:00;;;;;;;13.85;10.00;;;;;;;1.69;79.32;100973.67;1769037;80;21216;-64
2021/04/28 03:18:06;;;;;;;12.95;9.75;;;;;;;1.76;79.54;100977.18;1769146;80;21348;-63
2021/04/28 03:21:12;;;;;;;10.72;9.38;;;;;;;1.83;79.53;100978.98;1761110;80;21264;-64
2021/04/28 03:24:19;;;;;;;12.70;9.85;;;;;;;1.88;79.43;100991.20;1762294;80;21340;-64
2021/04/28 03:27:25;;;;;;;10.88;9.60;;;;;;;1.90;79.30;100988.39;1768068;80;21200;-63
2021/04/28 03:30:31;;;;;;;13.93;10.85;;;;;;;1.95;79.40;100991.64;1769078;80;21220;-64
2021/04/28 03:33:35;;;;;;;11.60;9.80;;;;;;;2.04;79.53;100996.39;1768529;80;21395;-64
2021/04/28 03:36:43;;;;;;;10.28;8.83;;;;;;;2.10;79.49;101005.41;1769291;80;21264;-62
2021/04/28 03:39:55;;;;;;;10.38;8.90;;;;;;;2.14;79.39;101008.28;1768786;81;21355;-62
2021/04/28 03:43:00;;;;;;;9.45;8.55;;;;;;;2.19;79.36;101008.84;1767000;80;21340;-64
2021/04/28 03:46:06;;;;;;;9.45;8.45;;;;;;;2.25;79.49;101011.09;1769284;80;21260;-63
2021/04/28 03:49:15;;;;;;;10.72;8.68;;;;;;;2.34;79.60;101015.84;1769385;80;21193;-63
2021/04/28 03:52:21;;;;;;;18.00;13.38;;;;;;;2.42;79.81;101010.28;1769444;80;21391;-62
2021/04/28 03:55:44;;;;;;;36.42;19.60;;;;;;;2.53;79.92;101016.27;1769008;80;21205;-62
2021/04/28 03:58:50;;;;;;;24.72;14.15;;;;;;;2.67;80.11;101021.06;1769647;80;21189;-62
2021/04/28 04:01:55;;;;;;;19.27;13.60;;;;;;;2.79;80.09;101018.81;1770181;80;21339;-63
2021/04/28 04:05:05;;;;;;;15.80;12.53;;;;;;;2.88;79.94;101015.94;1768103;81;22058;-62
2021/04/28 04:08:13;;;;;;;17.25;14.13;;;;;;;2.94;79.86;101022.24;1763625;81;21367;-63
2021/04/28 04:11:21;;;;;;;21.60;16.07;;;;;;;3.05;79.80;101022.32;1769823;80;21414;-64
2021/04/28 04:14:26;;;;;;;26.52;18.55;;;;;;;3.13;79.72;101026.69;1769472;80;21250;-64
2021/04/28 04:17:33;;;;;;;23.22;16.42;;;;;;;3.24;79.63;101025.88;1769231;80;21862;-61
2021/04/28 04:20:40;;;;;;;19.23;15.23;;;;;;;3.33;79.47;101024.70;1769137;81;21221;-62
2021/04/28 04:23:54;;;;;;;17.90;13.72;;;;;;;3.43;79.37;101031.64;1769088;81;21210;-62
2021/04/28 04:27:12;;;;;;;16.02;12.82;;;;;;;3.53;79.27;101036.75;1747179;80;21201;-63
2021/04/28 04:30:21;;;;;;;18.98;14.25;;;;;;;3.64;79.30;101030.04;1769343;81;21360;-63
2021/04/28 04:33:30;;;;;;;18.12;13.68;;;;;;;3.75;79.26;101039.08;1769093;81;21762;-64
2021/04/28 04:36:54;;;;;;;17.65;13.60;;;;;;;3.87;79.22;101042.20;1769203;81;21785;-62
2021/04/28 04:40:19;;;;;;;13.75;11.90;;;;;;;4.01;79.17;101042.51;1786058;79;21780;-63
2021/04/28 04:43:28;;;;;;;14.00;12.07;;;;;;;4.14;79.14;101050.91;1782986;78;21296;-63
2021/04/28 04:46:44;;;;;;;12.13;10.85;;;;;;;4.24;78.89;101050.58;1760120;81;21351;-63
2021/04/28 04:49:51;;;;;;;13.48;12.07;;;;;;;4.36;78.76;101052.83;1760313;81;21355;-63
2021/04/28 04:52:56;;;;;;;15.65;11.60;;;;;;;4.47;78.56;101059.11;1760238;81;21260;-63
2021/04/28 04:56:02;;;;;;;15.40;11.73;;;;;;;4.57;78.43;101058.77;1760132;81;21411;-62
2021/04/28 04:59:10;;;;;;;15.08;12.00;;;;;;;4.70;78.28;101067.27;1760452;81;21355;-63
2021/04/28 05:02:16;;;;;;;11.90;10.48;;;;;;;4.80;78.11;101069.15;1760401;81;21375;-63
2021/04/28 05:05:23;;;;;;;13.83;11.53;;;;;;;4.90;77.99;101061.98;1753578;81;21371;-64
2021/04/28 05:08:31;;;;;;;15.65;11.45;;;;;;;4.99;77.83;101074.83;1759919;81;21371;-62
2021/04/28 05:11:37;;;;;;;17.10;12.15;;;;;;;5.09;77.87;101077.66;1759005;81;21435;-62
2021/04/28 05:14:42;;;;;;;18.32;13.28;;;;;;;5.20;77.79;101081.72;1756661;81;21226;-61
2021/04/28 05:17:50;;;;;;;13.78;11.55;;;;;;;5.31;77.60;101082.55;1756216;81;21379;-60
2021/04/28 05:20:56;;;;;;;15.18;11.55;;;;;;;5.41;77.44;101084.89;1734773;82;21209;-60
2021/04/28 05:24:02;;;;;;;13.38;11.90;;;;;;;5.51;77.37;101077.72;1735602;82;21213;-60
2021/04/28 05:27:14;;;;;;;14.38;12.80;;;;;;;5.60;77.20;101080.16;1695564;84;21343;-60
2021/04/28 05:30:20;;;;;;;13.35;11.22;;;;;;;5.71;77.03;101086.91;1735786;82;21406;-59
2021/04/28 05:33:27;;;;;;;15.48;13.25;;;;;;;5.80;76.98;101088.88;1704454;84;21721;-60
2021/04/28 05:36:33;;;;;;;15.80;12.60;;;;;;;5.89;76.85;101094.44;1735467;82;21375;-60
2021/04/28 05:39:39;;;;;;;13.32;11.68;;;;;;;6.01;76.63;101091.16;1736011;82;21294;-61
2021/04/28 05:42:44;;;;;;;17.07;11.88;;;;;;;6.14;76.42;101098.66;1703714;84;21212;-59
2021/04/28 05:45:50;;;;;;;13.05;10.58;;;;;;;6.27;76.14;101095.27;1756912;79;21201;-59
2021/04/28 05:48:57;;;;;;;17.00;11.40;;;;;;;6.41;75.96;101101.73;1803614;79;21263;-59
2021/04/28 05:52:03;;;;;;;13.22;10.32;;;;;;;6.54;75.60;101098.33;1803631;79;21817;-59
2021/04/28 05:55:11;;;;;;;10.70;9.18;;;;;;;6.67;75.23;101099.48;1803848;79;21398;-59
2021/04/28 05:58:18;;;;;;;11.28;8.70;;;;;;;6.77;74.57;101102.62;1803149;79;21346;-59
2021/04/28 06:01:24;;;;;;;10.40;8.65;;;;;;;6.90;73.89;101107.36;1791381;79;21697;-59
2021/04/28 06:04:30;;;;;;;10.08;7.70;;;;;;;7.01;73.58;101112.72;1792765;79;21350;-59
2021/04/28 06:07:36;;;;;;;11.95;8.05;;;;;;;7.11;72.99;101108.20;1803121;79;21340;-59
2021/04/28 06:10:42;;;;;;;12.73;7.05;;;;;;;7.21;71.84;101108.23;1802408;79;21338;-60
2021/04/28 06:13:51;;;;;;;12.85;6.72;;;;;;;7.32;71.07;101112.23;1802428;79;21211;-59
2021/04/28 06:17:05;;;;;;;8.45;7.30;;;;;;;7.42;70.04;101115.33;1802624;79;21381;-60
2021/04/28 06:20:15;;;;;;;7.30;5.15;;;;;;;7.53;69.69;101115.23;1765756;81;22007;-59
2021/04/28 06:23:20;;;;;;;6.08;4.80;;;;;;;7.63;68.80;101122.07;1764350;81;21750;-60
2021/04/28 06:26:27;;;;;;;8.25;4.70;;;;;;;7.74;67.65;101122.48;1771818;80;21878;-60
2021/04/28 06:29:33;;;;;;;6.83;4.92;;;;;;;7.82;66.17;101119.39;1771528;80;21274;-59
2021/04/28 06:32:38;;;;;;;5.72;4.35;;;;;;;7.90;65.25;101117.31;1771709;81;21342;-59
2021/04/28 06:35:44;;;;;;;4.47;3.45;;;;;;;7.97;64.33;101121.22;1777740;79;21252;-61
2021/04/28 06:38:55;;;;;;;6.83;4.33;;;;;;;8.04;62.89;101125.95;1788255;80;21344;-59
2021/04/28 06:42:00;;;;;;;6.65;4.08;;;;;;;8.09;62.41;101127.77;1788055;80;21335;-59
2021/04/28 06:45:07;;;;;;;5.58;3.47;;;;;;;8.20;61.78;101132.20;1786619;79;21296;-61
2021/04/28 06:48:15;;;;;;;8.20;4.22;;;;;;;8.27;60.00;101134.28;1753129;81;21438;-60
2021/04/28 06:51:21;;;;;;;7.55;4.08;;;;;;;8.32;59.40;101134.72;1703926;84;21232;-60
2021/04/28 06:54:27;;;;;;;11.63;4.25;;;;;;;8.44;60.26;101136.78;1740115;82;21388;-60
2021/04/28 06:57:32;;;;;;;5.60;3.17;;;;;;;8.55;60.50;101139.36;1756082;81;22006;-60
2021/04/28 07:00:40;;;;;;;4.03;2.70;;;;;;;8.65;59.63;101138.86;1748184;82;21423;-62
2021/04/28 07:03:47;;;;;;;7.58;3.37;;;;;;;8.73;56.95;101139.00;1681523;84;21363;-62
2021/04/28 07:06:53;;;;;;;8.18;3.10;;;;;;;8.80;55.21;101140.98;1696829;82;21391;-62
2021/04/28 07:10:00;;;;;;;5.25;3.25;;;;;;;8.85;54.18;101147.38;1696503;84;21852;-62
2021/04/28 07:13:06;;;;;;;7.65;3.70;;;;;;;8.91;54.26;101145.45;1696288;84;21245;-63
2021/04/28 07:16:12;;;;;;;4.05;2.60;;;;;;;9.00;54.42;101141.33;1702605;82;21236;-61
2021/04/28 07:19:18;;;;;;;4.00;2.52;;;;;;;9.15;54.65;101144.43;1735597;82;21375;-63
2021/04/28 07:22:24;;;;;;;2.85;2.22;;;;;;;9.28;52.21;101144.97;1735490;82;21193;-63
2021/04/28 12:05:47;;;;;;;3.80;1.60;;;;;;;15.32;31.33;101088.34;1720879;80;21189;-60
2021/04/28 12:08:56;;;;;;;2.00;1.35;;;;;;;15.24;31.59;101083.73;1703842;83;21213;-60
2021/04/28 12:12:20;;;;;;;1.50;1.22;;;;;;;15.41;31.51;101083.95;1743768;81;21180;-60
2021/04/28 12:15:28;;;;;;;3.33;1.72;;;;;;;15.50;31.15;101081.94;1720872;83;21586;-60
2021/04/28 12:18:39;;;;;;;6.00;1.67;;;;;;;15.32;31.31;101077.30;1720735;83;21257;-59
2021/04/28 12:21:47;;;;;;;1.65;1.12;;;;;;;15.05;31.69;101075.17;1740221;80;21216;-60
2021/04/28 12:24:59;;;;;;;2.10;1.52;;;;;;;14.81;32.45;101072.97;1761626;81;21259;-60
2021/04/28 12:28:09;;;;;;;2.02;1.60;;;;;;;14.81;32.08;101073.48;1715291;82;21205;-60
2021/04/28 12:31:15;;;;;;;2.70;1.62;;;;;;;14.91;32.40;101074.09;1736193;82;21241;-61
2021/04/28 12:34:27;;;;;;;1.75;1.20;;;;;;;15.08;32.06;101072.04;1748988;81;21172;-62
2021/04/28 12:37:33;;;;;;;3.08;1.45;;;;;;;15.26;31.55;101066.48;1756080;81;21245;-61
2021/04/28 12:41:02;;;;;;;3.98;1.42;;;;;;;15.52;31.68;101066.05;1766883;81;21244;-60
2021/04/28 12:44:08;;;;;;;3.12;1.40;;;;;;;15.58;30.84;101063.38;1741166;81;21555;-60
2021/04/28 12:47:14;;;;;;;2.85;1.42;;;;;;;15.59;30.84;101068.36;1747954;81;21248;-60
2021/04/28 12:50:27;;;;;;;2.12;1.40;;;;;;;15.56;31.22;101064.09;1750763;81;21399;-61
2021/04/28 12:53:33;;;;;;;5.85;1.62;;;;;;;15.47;30.97;101063.00;1766985;81;21267;-61
2021/04/28 12:56:50;;;;;;;1.42;1.02;;;;;;;15.45;31.31;101065.95;1761578;81;21694;-61
2021/04/28 13:00:17;;;;;;;3.72;1.37;;;;;;;15.52;30.97;101064.16;1758849;81;21193;-60
2021/04/28 13:03:32;;;;;;;2.87;1.62;;;;;;;15.48;31.24;101065.56;1756815;81;21196;-62
2021/04/28 13:06:37;;;;;;;2.12;1.45;;;;;;;15.62;31.54;101054.20;1759972;81;21302;-61
2021/04/28 13:09:45;;;;;;;2.42;1.20;;;;;;;15.86;31.01;101051.09;1790928;79;21411;-61
2021/04/28 13:12:52;;;;;;;1.57;1.45;;;;;;;16.05;30.81;101051.34;1796309;80;21831;-61
2021/04/28 13:15:58;;;;;;;5.78;1.10;;;;;;;16.00;30.95;101055.20;1725076;83;21216;-60
2021/04/28 13:19:08;;;;;;;5.53;1.50;;;;;;;16.08;31.71;101048.19;1754859;81;21201;-60
2021/04/28 13:22:16;;;;;;;1.72;1.30;;;;;;;16.33;32.27;101046.75;1797706;79;21833;-61
2021/04/28 13:25:21;;;;;;;2.12;1.62;;;;;;;16.44;31.87;101047.64;1803021;79;21343;-61
2021/04/28 13:28:39;;;;;;;1.82;1.20;;;;;;;16.63;31.23;101053.05;1802858;79;21896;-61
2021/04/28 13:31:51;;;;;;;3.62;1.40;;;;;;;16.79;30.16;101046.38;1797974;79;21892;-63
2021/04/28 13:34:56;;;;;;;3.17;1.42;;;;;;;16.90;30.41;101054.13;1803133;79;21774;-61
2021/04/28 13:38:10;;;;;;;1.50;1.17;;;;;;;16.92;29.67;101055.62;1803548;79;21383;-61
2021/04/28 13:41:18;;;;;;;2.20;1.20;;;;;;;17.02;30.95;101056.66;1803641;79;21949;-61
2021/04/28 13:44:23;;;;;;;1.77;1.10;;;;;;;17.06;31.19;101049.13;1803634;79;21860;-61
2021/04/28 13:47:28;;;;;;;2.67;1.70;;;;;;;17.27;30.65;101054.62;1798827;79;21319;-61
2021/04/28 13:50:35;;;;;;;1.80;1.35;;;;;;;17.22;29.44;101049.38;1803702;79;21213;-61
2021/04/28 13:53:40;;;;;;;2.25;1.30;;;;;;;16.92;29.45;101058.94;1803852;79;21389;-62
2021/04/28 13:56:46;;;;;;;2.35;0.98;;;;;;;16.60;29.69;101059.50;1781282;79;21430;-60
2021/04/28 13:59:53;;;;;;;2.02;1.20;;;;;;;16.83;29.79;101054.59;1763404;81;21347;-60
2021/04/28 14:03:02;;;;;;;2.02;1.30;;;;;;;17.60;29.06;101050.71;1796603;79;21351;-60
2021/04/28 14:06:08;;;;;;;4.17;1.20;;;;;;;18.29;28.75;101050.86;1786037;79;21757;-60
2021/04/28 14:09:14;;;;;;;1.25;1.10;;;;;;;18.71;28.37;101043.59;1791060;79;21853;-60
2021/04/28 14:12:19;;;;;;;1.57;1.27;;;;;;;18.88;27.97;101040.73;1793227;79;21822;-59
2021/04/28 14:15:25;;;;;;;1.80;0.98;;;;;;;19.27;27.11;101040.69;1793875;79;21375;-59
2021/04/28 14:18:30;;;;;;;6.80;1.90;;;;;;;19.28;26.48;101035.47;1795765;79;21247;-60
2021/04/28 14:21:36;;;;;;;6.83;1.27;;;;;;;19.07;26.96;101039.88;1803125;79;21337;-58
2021/04/28 14:24:42;;;;;;;4.12;1.37;;;;;;;18.81;28.84;101035.70;1768560;80;21352;-60
2021/04/28 14:27:47;;;;;;;2.60;1.32;;;;;;;18.47;29.48;101033.10;1771387;79;21165;-59
2021/04/28 14:30:53;;;;;;;3.80;1.25;;;;;;;18.45;29.42;101033.87;1772085;79;21354;-61
2021/04/28 14:34:00;;;;;;;2.10;1.20;;;;;;;18.47;29.98;101040.03;1776638;79;21331;-61
2021/04/28 14:37:07;;;;;;;1.22;1.10;;;;;;;18.72;29.52;101045.31;1790963;79;21211;-61
2021/04/28 14:40:14;;;;;;;1.30;1.07;;;;;;;18.56;28.86;101045.72;1771652;81;21358;-61
2021/04/28 14:43:22;;;;;;;2.00;1.15;;;;;;;18.89;27.70;101041.56;1772092;81;21662;-61
2021/04/28 14:46:28;;;;;;;2.33;1.30;;;;;;;19.31;27.27;101042.53;1772255;80;21887;-61
2021/04/28 14:49:35;;;;;;;1.50;1.20;;;;;;;19.41;27.12;101043.48;1771646;80;21302;-62
2021/04/28 14:52:40;;;;;;;1.80;1.10;;;;;;;19.55;26.77;101041.81;1771712;81;21338;-61
2021/04/28 14:55:46;;;;;;;5.05;2.42;;;;;;;19.98;26.99;101034.59;1772028;80;21445;-62
2021/04/28 14:58:52;;;;;;;2.35;1.55;;;;;;;20.28;25.82;101034.36;1772325;81;21346;-61
2021/04/28 15:01:59;;;;;;;1.60;1.10;;;;;;;20.26;25.40;101038.45;1771830;81;21440;-61
2021/04/28 15:05:06;;;;;;;1.40;1.00;;;;;;;20.49;24.98;101037.33;1772472;80;21371;-61
2021/04/28 15:08:12;;;;;;;1.10;0.95;;;;;;;20.89;24.51;101040.14;1771547;81;21350;-62
2021/04/28 15:11:17;;;;;;;1.95;1.20;;;;;;;20.94;24.53;101032.48;1747172;80;21539;-61
2021/04/28 15:14:24;;;;;;;2.30;1.00;;;;;;;20.91;24.56;101028.77;1730208;83;21327;-61
2021/04/28 15:17:30;;;;;;;2.83;1.00;;;;;;;21.17;24.59;101032.75;1730124;83;21351;-61
2021/04/28 15:20:35;;;;;;;1.87;1.30;;;;;;;21.25;24.35;101032.46;1736895;81;21285;-61
2021/04/28 15:23:51;;;;;;;2.17;1.37;;;;;;;20.94;24.61;101030.56;1748273;82;21881;-60
2021/04/28 15:26:56;;;;;;;3.37;1.25;;;;;;;20.76;24.61;101029.97;1748357;82;21376;-61
2021/04/28 15:30:02;;;;;;;3.45;1.95;;;;;;;20.65;25.07;101027.05;1722586;81;21814;-63
2021/04/28 15:33:08;;;;;;;3.70;1.50;;;;;;;20.71;24.97;101028.92;1755286;81;21280;-61
2021/04/28 15:36:14;;;;;;;1.92;1.30;;;;;;;21.55;24.36;101030.08;1730814;81;21232;-61
2021/04/28 15:39:19;;;;;;;1.55;1.20;;;;;;;22.21;23.70;101025.39;1688243;84;21304;-62
2021/04/28 15:42:25;;;;;;;3.60;2.08;;;;;;;22.50;23.27;101020.05;1754518;81;21228;-61
2021/04/28 15:45:31;;;;;;;2.50;1.52;;;;;;;22.82;22.97;101020.08;1755082;81;21805;-62
2021/04/28 15:48:36;;;;;;;3.02;1.60;;;;;;;23.11;22.24;101024.74;1755125;81;21213;-62
2021/04/28 15:51:41;;;;;;;1.70;1.20;;;;;;;23.57;21.95;101015.84;1755303;81;21193;-62
2021/04/28 15:54:46;;;;;;;1.40;1.10;;;;;;;23.96;21.39;101018.34;1749988;81;21578;-62
2021/04/28 15:57:51;;;;;;;2.65;1.72;;;;;;;24.13;20.89;101011.47;1759960;81;21229;-62
2021/04/28 16:00:59;;;;;;;4.80;2.70;;;;;;;24.07;20.78;101018.06;1758422;81;21733;-62
2021/04/28 16:04:05;;;;;;;7.20;4.40;;;;;;;23.87;21.48;101012.84;1732055;82;21276;-62
2021/04/28 16:07:11;;;;;;;4.00;1.80;;;;;;;22.83;21.88;101023.20;1736355;82;21730;-62
2021/04/28 16:10:19;;;;;;;7.75;1.87;;;;;;;21.71;22.56;101014.13;1730082;82;21481;-62
2021/04/28 16:13:27;;;;;;;2.37;1.50;;;;;;;21.41;24.29;101026.27;1737819;80;21362;-62
2021/04/28 16:16:34;;;;;;;4.92;1.40;;;;;;;21.39;24.98;101021.48;1770715;80;21351;-62
2021/04/28 16:19:40;;;;;;;2.70;1.42;;;;;;;21.40;25.15;101021.26;1769046;80;21209;-61
2021/04/28 16:22:47;;;;;;;4.78;1.52;;;;;;;21.31;24.54;101025.41;1769570;81;21236;-62
2021/04/28 16:25:55;;;;;;;6.12;1.37;;;;;;;21.07;24.35;101028.23;1773305;80;21229;-62
2021/04/28 16:29:00;;;;;;;6.03;1.82;;;;;;;20.65;25.20;101024.27;1769498;80;21554;-63
2021/04/28 16:32:06;;;;;;;6.00;1.90;;;;;;;20.21;25.88;101029.39;1770317;80;21189;-62
2021/04/28 16:35:12;;;;;;;8.50;2.00;;;;;;;19.53;27.15;101025.92;1770765;80;21355;-62
2021/04/28 16:38:17;;;;;;;5.35;1.50;;;;;;;18.80;28.03;101029.84;1771296;80;21723;-61
2021/04/28 16:41:23;;;;;;;4.78;1.82;;;;;;;18.05;28.38;101030.64;1762093;80;21219;-60
2021/04/28 16:44:29;;;;;;;13.32;2.30;;;;;;;17.33;29.66;101037.74;1764930;80;21390;-60
2021/04/28 16:47:36;;;;;;;15.30;2.20;;;;;;;16.67;30.75;101042.42;1759018;81;21734;-61
2021/04/28 16:50:43;;;;;;;7.37;2.20;;;;;;;16.00;32.57;101052.44;1759520;81;21739;-61
2021/04/28 16:53:49;;;;;;;7.28;2.22;;;;;;;15.42;33.41;101053.05;1787831;80;21367;-61
2021/04/28 16:56:56;;;;;;;9.53;2.87;;;;;;;14.92;34.40;101056.52;1781950;80;21632;-61
2021/04/28 17:00:01;;;;;;;11.28;2.75;;;;;;;14.47;35.09;101057.95;1761140;81;21239;-60
2021/04/28 17:03:08;;;;;;;9.20;3.17;;;;;;;14.08;35.29;101053.05;1766837;80;21170;-61
2021/04/28 17:06:17;;;;;;;6.75;2.65;;;;;;;13.73;35.92;101060.48;1765043;80;21264;-61
2021/04/28 17:09:25;;;;;;;10.95;3.17;;;;;;;13.36;36.30;101060.64;1767991;80;21244;-61
2021/04/28 17:12:32;;;;;;;14.30;4.28;;;;;;;13.05;37.21;101059.68;1785114;79;21382;-60
2021/04/28 17:15:37;;;;;;;20.00;7.62;;;;;;;12.77;38.07;101069.32;1754240;81;21257;-61
2021/04/28 17:18:43;;;;;;;17.52;8.48;;;;;;;12.51;38.58;101068.63;1755454;81;21366;-62
2021/04/28 17:21:48;;;;;;;20.80;8.88;;;;;;;12.27;39.26;101067.77;1756356;81;21351;-62
2021/04/28 17:24:55;;;;;;;21.33;9.45;;;;;;;12.05;39.82;101070.64;1755527;81;21202;-61
2021/04/28 17:28:00;;;;;;;19.55;6.58;;;;;;;11.86;40.68;101076.45;1675278;85;21210;-62
2021/04/28 17:31:05;;;;;;;17.02;5.80;;;;;;;11.67;41.55;101073.45;1693924;84;21356;-61
2021/04/28 17:34:20;;;;;;;13.68;4.40;;;;;;;11.47;42.29;101082.95;1742892;81;21209;-60
2021/04/28 17:37:25;;;;;;;10.93;5.17;;;;;;;11.31;42.90;101087.48;1689895;85;21213;-61
2021/04/28 17:40:32;;;;;;;10.08;4.67;;;;;;;11.14;43.59;101090.66;1751110;81;21233;-61
2021/04/28 17:43:37;;;;;;;12.85;5.87;;;;;;;10.96;44.33;101097.20;1688014;84;21274;-61
2021/04/28 17:46:46;;;;;;;12.63;6.22;;;;;;;10.80;44.81;101094.37;1729683;82;21370;-61
2021/04/28 17:49:53;;;;;;;10.93;6.17;;;;;;;10.66;45.07;101096.28;1729870;83;21367;-61
2021/04/28 17:52:59;;;;;;;17.48;7.97;;;;;;;10.52;45.30;101097.23;1729524;83;21355;-62
2021/04/28 17:56:05;;;;;;;17.45;7.60;;;;;;;10.39;45.86;101091.78;1729711;83;21379;-60
2021/04/28 17:59:10;;;;;;;16.30;6.90;;;;;;;10.26;46.29;101095.42;1730330;83;21296;-61
2021/04/28 18:02:20;;;;;;;14.55;6.90;;;;;;;10.16;46.72;101098.23;1729823;83;21213;-61
2021/04/28 18:05:26;;;;;;;15.00;6.90;;;;;;;10.05;47.07;101099.80;1730040;83;21355;-60
2021/04/28 18:08:32;;;;;;;10.08;5.90;;;;;;;9.94;47.21;101104.13;1730353;83;21221;-60
2021/04/28 18:11:38;;;;;;;13.00;5.60;;;;;;;9.84;47.43;101110.18;1747859;81;21266;-61
2021/04/28 18:14:45;;;;;;;6.70;4.33;;;;;;;9.76;47.74;101120.16;1714118;81;21213;-60
2021/04/28 18:17:50;;;;;;;12.75;4.85;;;;;;;9.66;47.87;101112.00;1771667;80;21386;-59
2021/04/28 18:20:55;;;;;;;11.25;4.90;;;;;;;9.58;48.37;101122.84;1771297;80;21342;-59
2021/04/28 18:24:01;;;;;;;12.80;5.47;;;;;;;9.50;48.66;101114.53;1771036;81;21212;-60
2021/04/28 18:27:06;;;;;;;14.73;6.17;;;;;;;9.41;49.21;101119.55;1801992;79;21411;-60
2021/04/28 18:30:12;;;;;;;16.73;8.95;;;;;;;9.32;50.16;101116.84;1802238;79;21861;-61
2021/04/28 18:33:17;;;;;;;32.35;18.35;;;;;;;9.25;50.96;101112.48;1803087;79;21172;-61
2021/04/28 18:36:26;;;;;;;44.93;21.07;;;;;;;9.17;51.79;101121.06;1804275;79;21717;-61
2021/04/28 18:39:32;;;;;;;40.95;22.58;;;;;;;9.08;52.33;101117.37;1803021;79;21224;-60
2021/04/28 18:42:41;;;;;;;45.55;23.20;;;;;;;8.97;53.02;101114.28;1771469;81;21200;-59
2021/04/28 18:45:46;;;;;;;43.25;22.82;;;;;;;8.91;53.77;101122.23;1771463;80;21209;-59
2021/04/28 18:48:52;;;;;;;43.28;23.87;;;;;;;8.81;54.48;101124.11;1771441;81;21714;-61
2021/04/28 18:51:57;;;;;;;33.15;19.48;;;;;;;8.73;55.07;101124.86;1771589;81;21358;-60
2021/04/28 18:55:05;;;;;;;44.83;22.60;;;;;;;8.64;55.53;101111.22;1774127;79;21219;-60
2021/04/28 18:58:09;;;;;;;49.40;24.12;;;;;;;8.56;55.78;101122.00;1794360;79;21573;-61
2021/04/28 19:01:15;;;;;;;57.03;25.10;;;;;;;8.46;55.82;101125.23;1801296;79;21384;-61
2021/04/28 19:04:20;;;;;;;60.23;25.50;;;;;;;8.36;56.01;101122.99;1788442;79;22025;-61
2021/04/28 19:07:26;;;;;;;65.22;28.67;;;;;;;8.26;56.56;101128.97;1781471;79;21188;-61
2021/04/28 19:10:32;;;;;;;65.17;30.55;;;;;;;8.19;57.22;101129.13;1799625;79;21211;-60